Time;durP1;ratioP1;P1;durP2;ratioP2;P2;SDS_P1;SDS_P2;PMS_P1;PMS_P2;Temp;Humidity;BMP_temperature;BMP_pressure;BME280_temperature;BME280_humidity;BME280_pressure;Samples;Min_cycle;Max_cycle;Signal;HPM_P1;HPM_P2
2022/09/06 00:01:18;;;;;;;5.82;4.82;;;16.70;99.90;;;;;;5220488;28;20386;-72
2022/09/06 00:03:50;;;;;;;9.65;6.03;;;16.60;99.90;;;;;;5203596;28;20036;-71
2022/09/06 00:06:27;;;;;;;6.20;5.55;;;16.50;99.90;;;;;;5194049;28;20045;-71
2022/09/06 00:09:01;;;;;;;7.85;5.55;;;16.50;99.90;;;;;;5190569;28;20041;-71
2022/09/06 00:11:35;;;;;;;;;;;16.50;99.90;;;;;;5222244;28;20047;-72
2022/09/06 00:14:12;;;;;;;5.70;5.10;;;16.50;99.90;;;;;;5220681;28;19920;-72
2022/09/06 00:16:46;;;;;;;8.27;5.80;;;16.50;99.90;;;;;;5220861;28;20033;-72
2022/09/06 00:19:24;;;;;;;7.05;5.70;;;16.50;99.90;;;;;;5224749;28;20043;-71
2022/09/06 00:21:58;;;;;;;9.63;6.20;;;16.40;99.90;;;;;;5215332;28;20057;-72
2022/09/06 00:24:32;;;;;;;6.93;5.68;;;16.40;99.90;;;;;;5222403;28;20043;-71
2022/09/06 00:27:07;;;;;;;7.05;5.70;;;16.30;99.90;;;;;;5220037;28;20033;-71
2022/09/06 00:29:38;;;;;;;7.72;6.20;;;16.20;99.90;;;;;;5221036;28;20039;-71
2022/09/06 00:32:14;;;;;;;7.03;6.32;;;16.10;99.90;;;;;;5219722;28;20028;-71
2022/09/06 00:34:46;;;;;;;6.88;5.53;;;16.10;99.90;;;;;;5217759;28;20052;-71
2022/09/06 00:37:18;;;;;;;6.40;5.50;;;16.00;99.90;;;;;;5217514;28;20047;-71
2022/09/06 00:39:52;;;;;;;7.03;6.13;;;16.00;99.90;;;;;;5210132;28;20041;-71
2022/09/06 00:42:26;;;;;;;7.35;6.60;;;16.00;99.90;;;;;;5225724;28;20398;-72
2022/09/06 00:45:00;;;;;;;;;;;16.10;99.90;;;;;;5220035;28;20039;-72
2022/09/06 00:47:37;;;;;;;7.28;5.75;;;16.10;99.90;;;;;;5232657;28;19970;-71
2022/09/06 00:50:13;;;;;;;6.97;6.07;;;16.00;99.90;;;;;;5210178;28;20039;-71
2022/09/06 00:52:48;;;;;;;10.80;6.75;;;16.00;99.90;;;;;;5212242;28;20037;-71
2022/09/06 00:55:20;;;;;;;9.98;6.25;;;16.00;99.90;;;;;;5183963;28;20043;-71
2022/09/06 00:57:57;;;;;;;8.63;6.47;;;16.00;99.90;;;;;;5218539;28;20037;-72
2022/09/06 01:00:34;;;;;;;8.55;5.90;;;15.90;99.90;;;;;;5219589;28;20086;-71
2022/09/06 01:03:11;;;;;;;7.75;6.22;;;15.90;99.90;;;;;;5216416;28;20479;-72
2022/09/06 01:06:18;;;;;;;7.25;6.00;;;15.90;99.90;;;;;;5221209;28;20090;-71
2022/09/06 01:09:10;;;;;;;6.78;6.10;;;15.80;99.90;;;;;;5220937;28;20046;-71
2022/09/06 01:12:02;;;;;;;7.88;6.47;;;15.80;99.90;;;;;;5216882;28;20043;-71
2022/09/06 01:15:07;;;;;;;6.07;5.47;;;15.80;99.90;;;;;;5233354;28;20036;-72
2022/09/06 01:18:30;;;;;;;8.32;6.22;;;15.80;99.90;;;;;;5237157;28;20517;-72
2022/09/06 01:21:21;;;;;;;7.40;6.50;;;15.70;99.90;;;;;;5248409;28;20028;-71
2022/09/06 01:24:24;;;;;;;6.90;6.07;;;15.70;99.90;;;;;;5200864;28;20056;-71
2022/09/06 01:27:20;;;;;;;8.77;6.70;;;15.60;99.90;;;;;;5218647;28;20033;-71
2022/09/06 01:30:04;;;;;;;9.35;6.45;;;15.60;99.90;;;;;;5208021;28;20037;-72
2022/09/06 01:32:52;;;;;;;7.35;6.60;;;15.50;99.90;;;;;;5213400;28;20030;-72
2022/09/06 01:35:48;;;;;;;7.28;5.90;;;15.50;99.90;;;;;;5237439;28;20033;-72
2022/09/06 01:38:20;;;;;;;10.35;6.50;;;15.50;99.90;;;;;;5237968;28;20515;-71
2022/09/06 01:40:53;;;;;;;9.10;6.57;;;15.50;99.90;;;;;;5230398;28;20020;-72
2022/09/06 01:43:31;;;;;;;7.67;6.87;;;15.50;99.90;;;;;;5228403;28;20059;-71
2022/09/06 01:46:38;;;;;;;9.05;6.90;;;15.60;99.90;;;;;;5212723;28;20285;-72
2022/09/06 01:49:29;;;;;;;8.32;7.07;;;15.60;99.90;;;;;;5219196;28;20061;-72
2022/09/06 01:52:35;;;;;;;8.25;6.78;;;15.60;99.90;;;;;;5234740;28;20039;-72
2022/09/06 01:55:26;;;;;;;7.60;6.80;;;15.60;99.90;;;;;;5234522;28;20040;-73
2022/09/06 01:58:29;;;;;;;10.95;7.45;;;15.60;99.90;;;;;;5220580;28;20406;-73
2022/09/06 02:01:45;;;;;;;9.45;6.60;;;15.50;99.90;;;;;;5216384;28;20035;-73
2022/09/06 02:04:51;;;;;;;7.22;6.38;;;15.40;99.90;;;;;;5174770;28;20054;-73
2022/09/06 02:07:27;;;;;;;7.88;6.47;;;15.30;99.90;;;;;;5220481;28;20060;-71
2022/09/06 02:10:21;;;;;;;8.95;6.05;;;15.20;99.90;;;;;;5219309;28;20036;-73
2022/09/06 02:13:02;;;;;;;8.30;6.93;;;15.20;99.90;;;;;;5219783;28;20374;-73
2022/09/06 02:15:42;;;;;;;6.90;6.20;;;15.20;99.90;;;;;;5221719;28;20027;-73
2022/09/06 02:18:57;;;;;;;9.68;7.18;;;15.20;99.90;;;;;;5213959;28;20265;-73
2022/09/06 02:21:42;;;;;;;10.63;7.68;;;15.20;99.90;;;;;;5173842;28;20045;-73
2022/09/06 02:24:30;;;;;;;9.05;6.93;;;15.20;99.90;;;;;;5157870;28;20366;-73
2022/09/06 02:27:05;;;;;;;10.43;7.30;;;15.10;99.90;;;;;;5141684;28;20234;-71
2022/09/06 02:29:37;;;;;;;8.50;7.03;;;15.10;99.90;;;;;;5157677;28;20052;-71
2022/09/06 02:32:30;;;;;;;8.45;7.35;;;15.10;99.90;;;;;;5158029;28;20046;-71
2022/09/06 02:35:08;;;;;;;10.10;7.03;;;15.10;99.90;;;;;;5158112;28;20057;-72
2022/09/06 02:37:43;;;;;;;9.90;7.88;;;15.00;99.90;;;;;;5157449;28;20045;-73
2022/09/06 02:40:19;;;;;;;9.15;7.28;;;15.00;99.90;;;;;;5160082;28;20033;-71
2022/09/06 02:42:53;;;;;;;9.60;7.32;;;15.10;99.90;;;;;;5162076;28;20224;-71
2022/09/06 02:45:28;;;;;;;9.63;6.80;;;15.10;99.90;;;;;;5181423;28;20049;-72
2022/09/06 02:48:06;;;;;;;7.72;6.93;;;15.00;99.90;;;;;;5158608;28;20051;-72
2022/09/06 02:50:42;;;;;;;8.60;6.80;;;15.00;99.90;;;;;;5160539;28;20063;-73
2022/09/06 02:53:17;;;;;;;9.30;8.02;;;15.00;99.90;;;;;;5160112;28;20040;-72
2022/09/06 02:55:53;;;;;;;10.18;7.85;;;14.90;99.90;;;;;;5176507;28;20045;-72
2022/09/06 02:58:30;;;;;;;11.30;7.93;;;14.90;99.90;;;;;;5225639;28;20039;-72
2022/09/06 03:01:01;;;;;;;9.02;7.47;;;14.90;99.90;;;;;;5222903;28;20020;-72
2022/09/06 03:03:33;;;;;;;9.55;7.05;;;14.90;99.90;;;;;;5219852;28;20036;-72
2022/09/06 03:06:12;;;;;;;10.38;7.28;;;14.80;99.90;;;;;;5207655;28;20049;-72
2022/09/06 03:08:46;;;;;;;8.10;6.85;;;14.80;99.90;;;;;;5215842;28;20043;-72
2022/09/06 03:11:22;;;;;;;9.90;8.30;;;14.70;99.90;;;;;;5206336;28;20037;-72
2022/09/06 03:13:55;;;;;;;9.20;7.72;;;14.70;99.90;;;;;;5195550;28;20276;-72
2022/09/06 03:16:26;;;;;;;10.10;8.27;;;14.70;99.90;;;;;;5233120;28;20043;-72
2022/09/06 03:19:00;;;;;;;9.43;7.70;;;14.70;99.90;;;;;;5222293;28;20060;-73
2022/09/06 03:21:34;;;;;;;10.18;8.13;;;14.70;99.90;;;;;;5220858;28;20033;-72
2022/09/06 03:24:13;;;;;;;10.73;9.13;;;14.70;99.90;;;;;;5193492;28;20057;-72
2022/09/06 03:26:52;;;;;;;10.43;8.98;;;14.70;99.90;;;;;;5202080;28;20041;-72
2022/09/06 03:29:25;;;;;;;10.18;7.90;;;14.70;99.90;;;;;;5212074;28;20041;-72
2022/09/06 03:31:58;;;;;;;10.90;8.07;;;14.70;99.90;;;;;;5198329;28;20028;-72
2022/09/06 03:34:32;;;;;;;10.15;8.18;;;14.60;99.90;;;;;;5208279;28;20033;-72
2022/09/06 03:37:06;;;;;;;10.30;8.73;;;14.70;99.90;;;;;;5200345;28;20033;-72
2022/09/06 03:39:39;;;;;;;9.05;7.72;;;14.70;99.90;;;;;;5201914;28;20479;-72
2022/09/06 03:42:12;;;;;;;12.85;8.23;;;14.60;99.90;;;;;;5209085;28;20025;-71
2022/09/06 03:44:44;;;;;;;8.75;7.55;;;14.60;99.90;;;;;;5168333;28;20025;-72
2022/09/06 03:47:19;;;;;;;9.65;7.93;;;14.60;99.90;;;;;;5198658;28;20033;-72
2022/09/06 03:49:55;;;;;;;;;;;14.50;99.90;;;;;;5207007;28;20033;-72
2022/09/06 03:52:29;;;;;;;10.45;8.70;;;14.50;99.90;;;;;;5214892;28;20603;-72
2022/09/06 03:55:03;;;;;;;9.80;8.30;;;14.50;99.90;;;;;;5212000;28;20033;-72
2022/09/06 03:57:36;;;;;;;11.55;8.30;;;14.50;99.90;;;;;;5200554;28;20514;-74
2022/09/06 04:00:12;;;;;;;10.18;8.50;;;14.50;99.90;;;;;;5184759;28;20045;-73
2022/09/06 04:02:50;;;;;;;14.35;8.45;;;14.50;99.90;;;;;;5218780;28;20055;-71
2022/09/06 04:05:26;;;;;;;10.95;8.70;;;14.50;99.90;;;;;;5205372;28;20385;-72
2022/09/06 04:07:58;;;;;;;12.77;8.85;;;14.50;99.90;;;;;;5205437;28;20033;-71
2022/09/06 04:10:29;;;;;;;11.15;8.65;;;14.50;99.90;;;;;;5198908;28;20037;-71
2022/09/06 04:13:01;;;;;;;11.15;8.77;;;14.50;99.90;;;;;;5217496;28;20041;-72
2022/09/06 04:15:32;;;;;;;12.48;8.70;;;14.50;99.90;;;;;;5200776;28;20025;-71
2022/09/06 04:18:04;;;;;;;11.85;8.98;;;14.50;99.90;;;;;;5205657;28;20037;-72
2022/09/06 04:20:41;;;;;;;11.18;8.85;;;14.50;99.90;;;;;;5219016;28;20017;-73
2022/09/06 04:23:19;;;;;;;10.02;8.43;;;14.40;99.90;;;;;;5215003;28;20041;-72
2022/09/06 04:25:58;;;;;;;11.05;8.98;;;14.40;99.90;;;;;;5207892;28;20037;-73
2022/09/06 04:28:29;;;;;;;15.32;9.52;;;14.30;99.90;;;;;;5209898;28;20043;-71
2022/09/06 04:31:05;;;;;;;13.95;9.20;;;14.40;99.90;;;;;;5186486;28;20041;-73
2022/09/06 04:33:38;;;;;;;16.65;8.95;;;14.40;99.90;;;;;;5209763;28;20036;-73
2022/09/06 04:36:10;;;;;;;10.13;8.07;;;14.50;99.90;;;;;;5204312;28;20506;-72
2022/09/06 04:38:43;;;;;;;12.40;8.68;;;14.50;99.90;;;;;;5212207;28;20047;-73
2022/09/06 04:41:21;;;;;;;13.82;8.85;;;14.50;99.90;;;;;;5208051;28;20043;-71
2022/09/06 04:43:57;;;;;;;12.50;9.48;;;14.50;99.90;;;;;;5216561;28;20031;-72
2022/09/06 04:46:38;;;;;;;15.88;8.95;;;14.60;99.90;;;;;;5215374;28;20166;-72
2022/09/06 04:49:09;;;;;;;10.70;9.05;;;14.70;99.90;;;;;;5184137;28;20043;-72
2022/09/06 04:51:43;;;;;;;10.38;8.45;;;14.80;99.90;;;;;;5199118;28;20047;-72
2022/09/06 04:54:20;;;;;;;10.68;8.70;;;14.80;99.90;;;;;;5208580;28;20527;-72
2022/09/06 04:56:56;;;;;;;10.90;8.25;;;15.00;99.90;;;;;;5209150;28;20037;-73
2022/09/06 04:59:32;;;;;;;9.70;8.00;;;15.10;99.90;;;;;;5199345;28;20592;-72
2022/09/06 05:02:05;;;;;;;7.78;6.90;;;15.20;99.90;;;;;;5227386;28;20041;-72
2022/09/06 05:04:38;;;;;;;11.40;7.65;;;15.20;99.90;;;;;;5218644;28;20053;-72
2022/09/06 05:07:10;;;;;;;12.27;8.25;;;15.30;99.90;;;;;;5214795;28;20045;-71
2022/09/06 05:09:41;;;;;;;9.38;7.55;;;15.40;99.90;;;;;;5226669;28;20469;-72
2022/09/06 05:12:15;;;;;;;8.55;7.57;;;15.50;99.90;;;;;;5201999;28;20033;-71
2022/09/06 05:14:47;;;;;;;11.45;7.80;;;15.60;99.90;;;;;;5196785;28;20029;-72
2022/09/06 05:17:20;;;;;;;9.70;7.53;;;15.60;99.90;;;;;;5195292;28;20037;-72
2022/09/06 05:19:59;;;;;;;9.18;6.60;;;15.70;99.90;;;;;;5195895;28;20108;-73
2022/09/06 05:22:35;;;;;;;9.32;7.68;;;15.80;99.90;;;;;;5199662;28;20040;-72
2022/09/06 05:25:10;;;;;;;10.45;6.85;;;15.90;99.90;;;;;;5216156;28;20039;-72
2022/09/06 05:27:46;;;;;;;8.52;6.68;;;16.10;99.90;;;;;;5217667;28;20066;-72
2022/09/06 05:30:18;;;;;;;10.15;7.35;;;16.10;99.90;;;;;;5216104;28;20055;-72
2022/09/06 05:32:50;;;;;;;8.43;7.05;;;16.20;99.90;;;;;;5199678;28;20057;-73
2022/09/06 05:35:29;;;;;;;8.65;6.30;;;16.30;99.90;;;;;;5214211;28;20059;-73
2022/09/06 05:38:01;;;;;;;7.28;6.13;;;16.40;99.90;;;;;;5209575;28;20064;-72
2022/09/06 05:40:34;;;;;;;8.32;7.05;;;16.50;99.90;;;;;;5216853;28;20031;-72
2022/09/06 05:43:09;;;;;;;9.90;7.25;;;16.60;99.90;;;;;;5215675;28;20053;-72
2022/09/06 05:45:40;;;;;;;7.97;6.80;;;16.70;99.90;;;;;;5213804;28;20051;-72
2022/09/06 05:48:18;;;;;;;8.80;6.55;;;16.90;99.90;;;;;;5231519;28;20033;-71
2022/09/06 05:51:12;;;;;;;7.78;6.93;;;16.90;99.90;;;;;;5183066;28;20040;-72
2022/09/06 05:53:44;;;;;;;7.82;6.07;;;17.00;99.90;;;;;;5215041;28;20040;-73
2022/09/06 05:56:17;;;;;;;9.90;6.80;;;17.20;99.90;;;;;;5208059;28;20048;-73
2022/09/06 05:58:54;;;;;;;7.40;6.18;;;17.40;99.90;;;;;;5165993;28;20051;-74
2022/09/06 06:01:29;;;;;;;7.35;5.85;;;17.60;99.90;;;;;;5214753;28;20032;-74
2022/09/06 06:04:07;;;;;;;8.20;6.40;;;17.90;99.90;;;;;;5217158;28;20025;-73
2022/09/06 06:06:43;;;;;;;8.80;6.95;;;18.30;99.90;;;;;;5196381;28;20052;-73
2022/09/06 06:09:25;;;;;;;8.23;6.85;;;18.60;99.90;;;;;;5223017;28;20487;-73
2022/09/06 06:11:59;;;;;;;8.38;6.43;;;19.00;99.90;;;;;;5201999;28;20240;-73
2022/09/06 06:14:34;;;;;;;;;;;19.60;99.90;;;;;;5204579;28;20493;-73
2022/09/06 06:17:08;;;;;;;9.80;6.32;;;19.90;99.90;;;;;;5223791;28;19920;-74
2022/09/06 06:19:42;;;;;;;6.72;5.97;;;20.10;99.90;;;;;;5228180;28;20037;-72
2022/09/06 06:22:22;;;;;;;7.53;5.68;;;20.20;99.90;;;;;;5222684;28;20053;-71
2022/09/06 06:24:57;;;;;;;9.10;5.78;;;20.30;99.90;;;;;;5203957;28;20040;-74
2022/09/06 06:27:28;;;;;;;11.77;6.30;;;20.40;99.90;;;;;;5239055;28;20039;-73
2022/09/06 06:30:07;;;;;;;10.30;5.97;;;20.60;99.90;;;;;;5221555;28;20032;-74
2022/09/06 06:32:41;;;;;;;6.85;5.90;;;20.80;99.90;;;;;;5237880;28;20032;-73
2022/09/06 06:35:15;;;;;;;6.57;5.87;;;20.80;99.90;;;;;;5241720;28;20467;-72
2022/09/06 06:37:56;;;;;;;9.57;6.82;;;21.20;99.90;;;;;;5222310;28;20491;-72
2022/09/06 06:40:33;;;;;;;8.18;5.88;;;21.30;99.90;;;;;;5221130;28;20047;-72
2022/09/06 06:43:10;;;;;;;8.10;5.85;;;21.60;99.90;;;;;;5239774;28;20116;-73
2022/09/06 06:45:48;;;;;;;7.72;6.05;;;21.70;99.90;;;;;;5206940;28;20060;-72
2022/09/06 06:48:23;;;;;;;6.28;5.28;;;21.70;99.90;;;;;;5198077;28;20051;-72
2022/09/06 06:50:59;;;;;;;8.38;5.65;;;21.90;99.90;;;;;;5223289;28;20047;-74
2022/09/06 06:53:34;;;;;;;7.10;5.32;;;22.20;99.90;;;;;;5221843;28;20436;-74
2022/09/06 06:56:20;;;;;;;5.95;5.20;;;22.20;99.90;;;;;;5239586;28;20410;-72
2022/09/06 06:58:58;;;;;;;6.72;5.47;;;21.80;99.90;;;;;;5239266;28;20055;-73
2022/09/06 07:01:32;;;;;;;7.07;5.30;;;22.10;99.90;;;;;;5214385;28;20044;-72
2022/09/06 07:04:05;;;;;;;7.95;5.15;;;22.30;99.90;;;;;;5220603;28;20043;-73
2022/09/06 07:06:56;;;;;;;10.07;5.25;;;22.70;99.90;;;;;;5192110;28;20057;-71
2022/09/06 07:09:27;;;;;;;7.20;6.50;;;22.90;99.90;;;;;;5219761;28;20036;-72
2022/09/06 07:11:58;;;;;;;6.95;5.35;;;22.90;99.90;;;;;;5240145;28;20043;-73
2022/09/06 07:14:33;;;;;;;7.75;5.32;;;23.00;99.90;;;;;;5219606;28;20033;-72
2022/09/06 07:17:04;;;;;;;;;;;22.90;99.90;;;;;;5219319;28;20025;-71
2022/09/06 07:19:36;;;;;;;6.07;5.50;;;23.10;99.90;;;;;;5227839;28;19979;-72
2022/09/06 07:22:07;;;;;;;5.65;4.93;;;23.40;99.90;;;;;;5234861;28;20028;-72
2022/09/06 07:24:41;;;;;;;5.90;5.30;;;23.60;99.90;;;;;;5238404;28;20052;-72
2022/09/06 07:27:13;;;;;;;8.30;5.35;;;23.80;99.90;;;;;;5233534;28;20055;-72
2022/09/06 07:29:47;;;;;;;7.53;5.82;;;23.90;99.90;;;;;;5221334;28;20333;-72
2022/09/06 07:32:19;;;;;;;5.47;4.57;;;23.90;99.90;;;;;;5230809;28;20047;-72
2022/09/06 07:34:51;;;;;;;7.00;5.45;;;24.20;99.90;;;;;;5238385;28;20134;-72
2022/09/06 07:37:22;;;;;;;6.82;5.22;;;24.10;99.90;;;;;;5221031;28;20043;-73
2022/09/06 07:39:56;;;;;;;5.60;4.82;;;24.40;99.90;;;;;;5236099;28;20043;-72
2022/09/06 07:42:30;;;;;;;5.70;5.20;;;24.50;99.90;;;;;;5237492;28;20033;-73
2022/09/06 07:45:01;;;;;;;6.20;5.20;;;24.90;99.90;;;;;;5220764;28;20506;-72
2022/09/06 07:47:33;;;;;;;5.72;4.47;;;24.90;99.90;;;;;;5237908;28;20041;-72
2022/09/06 07:50:06;;;;;;;10.45;5.28;;;24.90;99.90;;;;;;5239209;28;20035;-72
2022/09/06 07:52:37;;;;;;;6.97;5.35;;;24.80;99.90;;;;;;5222188;28;20886;-73
2022/09/06 07:55:09;;;;;;;6.25;5.32;;;25.10;99.90;;;;;;5238072;28;20563;-72
2022/09/06 07:57:41;;;;;;;6.32;4.70;;;25.10;99.90;;;;;;5232704;28;20041;-74
2022/09/06 08:00:12;;;;;;;6.93;5.38;;;25.10;99.90;;;;;;5231429;28;20048;-74
2022/09/06 08:02:46;;;;;;;6.03;5.25;;;25.40;99.90;;;;;;5207253;28;20037;-74
2022/09/06 08:05:18;;;;;;;5.75;5.15;;;24.70;99.90;;;;;;5206513;28;20099;-73
2022/09/06 08:07:50;;;;;;;5.95;4.78;;;24.80;99.90;;;;;;5236014;28;20032;-74
2022/09/06 08:10:21;;;;;;;6.20;5.32;;;25.50;99.90;;;;;;5218951;28;20048;-72
2022/09/06 08:12:55;;;;;;;5.63;5.05;;;25.70;99.90;;;;;;5218482;28;20032;-72
2022/09/06 08:15:30;;;;;;;5.57;5.00;;;26.10;99.90;;;;;;5201368;28;20036;-72
2022/09/06 08:18:06;;;;;;;7.35;5.90;;;26.00;99.90;;;;;;5236859;28;20052;-72
2022/09/06 08:20:39;;;;;;;7.10;5.57;;;26.40;99.90;;;;;;5219608;28;20067;-72
2022/09/06 08:23:13;;;;;;;7.43;5.03;;;26.50;99.90;;;;;;5235181;28;20316;-72
2022/09/06 08:26:00;;;;;;;9.38;5.22;;;26.20;99.90;;;;;;5204823;28;20048;-73
2022/09/06 08:28:32;;;;;;;6.07;5.45;;;26.30;99.90;;;;;;5220865;28;20107;-72
2022/09/06 08:31:12;;;;;;;6.53;5.53;;;26.30;99.90;;;;;;5237832;28;20052;-73
2022/09/06 08:33:43;;;;;;;6.55;5.75;;;25.60;99.90;;;;;;5245142;28;20025;-72
2022/09/06 08:36:18;;;;;;;6.07;5.47;;;25.10;99.90;;;;;;5240080;28;20025;-73
2022/09/06 08:38:52;;;;;;;9.60;6.35;;;25.60;99.90;;;;;;5240491;28;20122;-71
2022/09/06 08:41:57;;;;;;;7.30;6.47;;;25.10;99.90;;;;;;5240276;28;20037;-73
2022/09/06 08:44:37;;;;;;;6.25;5.65;;;25.50;99.90;;;;;;5216182;28;20399;-74
2022/09/06 08:47:19;;;;;;;7.18;5.80;;;26.10;99.90;;;;;;5233661;28;20415;-72
2022/09/06 08:50:01;;;;;;;8.27;5.85;;;27.10;99.90;;;;;;5201975;28;20058;-72
2022/09/06 08:53:06;;;;;;;5.97;5.38;;;26.80;99.90;;;;;;5219948;28;20029;-73
2022/09/06 08:55:55;;;;;;;5.63;5.10;;;26.80;99.90;;;;;;5215632;28;20064;-72
2022/09/06 08:59:08;;;;;;;4.93;4.40;;;26.70;99.90;;;;;;5225812;28;20038;-74
2022/09/06 09:02:11;;;;;;;8.60;6.15;;;27.40;99.90;;;;;;5230649;28;20024;-73
2022/09/06 09:04:54;;;;;;;6.13;5.13;;;27.20;99.90;;;;;;5214974;28;20065;-73
2022/09/06 09:08:14;;;;;;;5.70;4.93;;;27.70;99.90;;;;;;5180396;28;20609;-73
2022/09/06 09:10:51;;;;;;;5.82;5.22;;;28.10;99.90;;;;;;5217276;28;20072;-72
2022/09/06 09:13:46;;;;;;;11.30;5.85;;;28.30;99.90;;;;;;5198276;28;20032;-73
2022/09/06 09:16:18;;;;;;;7.28;5.68;;;28.10;99.90;;;;;;5203527;28;20052;-72
2022/09/06 09:19:00;;;;;;;5.05;4.53;;;27.90;99.90;;;;;;5198689;28;20395;-72
2022/09/06 09:21:41;;;;;;;6.18;5.57;;;28.80;99.90;;;;;;5199730;28;20033;-73
2022/09/06 09:24:16;;;;;;;5.75;5.25;;;28.80;99.90;;;;;;5166234;28;20471;-74
2022/09/06 09:27:09;;;;;;;6.03;5.43;;;29.10;99.90;;;;;;5194743;28;20037;-73
2022/09/06 09:30:05;;;;;;;5.70;4.95;;;29.50;99.90;;;;;;5205380;28;20040;-72
2022/09/06 09:32:44;;;;;;;6.85;5.18;;;29.20;99.90;;;;;;5200967;28;20032;-73
2022/09/06 09:35:32;;;;;;;6.30;5.57;;;29.30;99.90;;;;;;5197971;28;20037;-73
2022/09/06 09:38:11;;;;;;;10.02;5.85;;;29.20;99.90;;;;;;5162774;28;20511;-72
2022/09/06 09:41:05;;;;;;;6.55;5.95;;;29.40;99.90;;;;;;5163347;28;20022;-72
2022/09/06 09:43:41;;;;;;;6.35;5.65;;;29.30;99.90;;;;;;5183809;28;20036;-73
2022/09/06 09:46:21;;;;;;;7.78;6.38;;;29.70;99.90;;;;;;5197573;28;20049;-73
2022/09/06 09:49:28;;;;;;;9.85;6.40;;;29.40;99.90;;;;;;5216622;28;20029;-74
2022/09/06 09:52:11;;;;;;;7.72;5.53;;;28.80;99.90;;;;;;5184184;28;20067;-73
2022/09/06 09:54:54;;;;;;;6.20;5.60;;;29.40;99.90;;;;;;5224049;28;20051;-72
2022/09/06 09:57:43;;;;;;;6.63;5.55;;;29.60;99.90;;;;;;5194417;28;20059;-72
2022/09/06 10:00:39;;;;;;;7.03;5.95;;;29.60;99.90;;;;;;5214842;28;20040;-72
2022/09/06 10:03:28;;;;;;;8.88;5.50;;;30.30;99.90;;;;;;5185589;28;20042;-72
2022/09/06 10:06:02;;;;;;;6.38;5.57;;;30.20;99.90;;;;;;5195316;28;20103;-71
2022/09/06 10:08:39;;;;;;;8.57;5.97;;;29.60;99.90;;;;;;5202952;28;20025;-72
2022/09/06 10:11:18;;;;;;;6.07;5.47;;;30.60;99.90;;;;;;5199723;28;20371;-72
2022/09/06 10:14:11;;;;;;;7.20;6.03;;;31.10;99.90;;;;;;5203285;28;20033;-71
2022/09/06 10:16:46;;;;;;;5.78;5.20;;;31.50;99.90;;;;;;5151132;28;20052;-72
2022/09/06 10:19:31;;;;;;;6.15;5.18;;;31.80;99.90;;;;;;5197161;28;20048;-72
2022/09/06 10:22:31;;;;;;;7.10;6.10;;;32.40;99.90;;;;;;5199757;28;20037;-72
2022/09/06 10:25:08;;;;;;;6.70;6.05;;;33.10;99.90;;;;;;5192256;28;20776;-72
2022/09/06 10:27:55;;;;;;;7.35;6.65;;;33.10;99.90;;;;;;5230098;28;20029;-72
2022/09/06 10:30:29;;;;;;;5.70;4.85;;;32.70;99.90;;;;;;5202591;28;20028;-71
2022/09/06 10:33:18;;;;;;;6.78;5.45;;;32.50;99.90;;;;;;5182888;28;20064;-72
2022/09/06 10:35:58;;;;;;;5.03;4.63;;;33.40;99.90;;;;;;5200101;28;20037;-72
2022/09/06 10:38:55;;;;;;;5.45;4.72;;;34.40;99.90;;;;;;5218486;28;20041;-72
2022/09/06 10:41:57;;;;;;;5.72;4.60;;;35.60;99.90;;;;;;5201973;28;20026;-73
2022/09/06 10:45:19;;;;;;;5.45;4.95;;;36.50;99.90;;;;;;5219928;28;20043;-72
2022/09/06 10:48:16;;;;;;;5.28;4.78;;;35.60;99.90;;;;;;5153608;28;20051;-74
2022/09/06 10:50:53;;;;;;;5.38;4.88;;;35.80;99.90;;;;;;5154171;28;20088;-74
2022/09/06 10:53:53;;;;;;;5.07;4.63;;;35.80;99.90;;;;;;5146405;28;20037;-72
2022/09/06 10:56:52;;;;;;;5.78;5.20;;;35.70;99.90;;;;;;5157081;28;20054;-74
2022/09/06 10:59:40;;;;;;;5.70;5.18;;;35.50;99.90;;;;;;5202412;28;20047;-74
2022/09/06 11:02:49;;;;;;;5.68;5.18;;;35.30;99.90;;;;;;5202679;28;20116;-72
2022/09/06 11:05:33;;;;;;;4.63;4.18;;;35.90;99.90;;;;;;5195268;28;20060;-74
2022/09/06 11:08:35;;;;;;;6.03;4.82;;;37.00;99.90;;;;;;5187520;28;20037;-72
2022/09/06 11:11:34;;;;;;;4.60;4.20;;;37.10;99.90;;;;;;5181837;28;20037;-73
2022/09/06 11:14:12;;;;;;;4.45;4.05;;;37.60;99.90;;;;;;5191583;28;20045;-72
2022/09/06 11:17:14;;;;;;;6.90;5.05;;;37.80;99.90;;;;;;5166099;28;20041;-72
2022/09/06 11:19:59;;;;;;;5.90;5.40;;;38.10;99.90;;;;;;5191551;28;20045;-74
2022/09/06 11:23:04;;;;;;;6.07;5.05;;;36.50;99.90;;;;;;5216707;28;20476;-71
2022/09/06 11:26:12;;;;;;;4.75;4.35;;;37.10;99.90;;;;;;5211441;28;20364;-73
2022/09/06 11:28:47;;;;;;;5.43;4.93;;;37.40;99.90;;;;;;5200398;28;20249;-74
2022/09/06 11:31:34;;;;;;;5.07;4.68;;;38.10;99.90;;;;;;5166480;28;20042;-74
2022/09/06 11:34:20;;;;;;;5.72;4.82;;;38.10;99.90;;;;;;5183819;28;20043;-73
2022/09/06 11:37:06;;;;;;;5.95;5.32;;;37.70;99.90;;;;;;5184813;28;20029;-71
2022/09/06 11:39:42;;;;;;;4.80;4.30;;;36.10;99.90;;;;;;5182551;28;20061;-74
2022/09/06 11:42:46;;;;;;;5.03;4.53;;;37.00;99.90;;;;;;5174776;28;20025;-72
2022/09/06 11:45:36;;;;;;;7.68;5.07;;;38.90;99.90;;;;;;5211125;28;20480;-72
2022/09/06 11:48:23;;;;;;;5.25;4.10;;;37.90;99.90;;;;;;5220980;28;20053;-73
2022/09/06 11:50:57;;;;;;;5.72;5.13;;;36.80;99.90;;;;;;5215379;28;20040;-73
2022/09/06 11:53:56;;;;;;;5.00;4.57;;;36.70;99.90;;;;;;5220072;28;20037;-72
2022/09/06 11:56:41;;;;;;;5.47;4.97;;;37.30;99.90;;;;;;5220783;28;20258;-73
2022/09/06 11:59:19;;;;;;;6.22;4.25;;;35.20;99.90;;;;;;5197071;28;20032;-74
2022/09/06 12:02:27;;;;;;;5.35;4.85;;;36.00;99.90;;;;;;5217067;28;20051;-74
2022/09/06 12:05:06;;;;;;;4.85;4.38;;;36.00;99.90;;;;;;5222689;28;20052;-74
2022/09/06 12:08:17;;;;;;;6.53;4.45;;;36.50;99.90;;;;;;5228780;28;20474;-73
2022/09/06 12:11:03;;;;;;;4.90;4.50;;;36.90;99.90;;;;;;5246551;28;20032;-73
2022/09/06 12:13:44;;;;;;;5.32;4.78;;;37.90;99.90;;;;;;5245678;28;20036;-73
2022/09/06 12:16:20;;;;;;;5.57;4.45;;;38.10;99.90;;;;;;5213985;28;20361;-72
2022/09/06 12:18:55;;;;;;;6.28;5.65;;;37.60;99.90;;;;;;5228465;28;20486;-72
2022/09/06 12:21:51;;;;;;;5.40;4.90;;;37.30;99.90;;;;;;5244558;28;20036;-72
2022/09/06 12:24:35;;;;;;;5.05;4.65;;;35.40;99.90;;;;;;5219913;28;20043;-72
2022/09/06 12:27:32;;;;;;;4.50;4.10;;;34.90;99.90;;;;;;5240051;28;20044;-73
2022/09/06 12:30:12;;;;;;;5.57;4.60;;;36.10;99.90;;;;;;5241191;28;20368;-73
2022/09/06 12:32:50;;;;;;;5.72;5.22;;;37.60;99.90;;;;;;5206496;28;20048;-72
2022/09/06 12:35:34;;;;;;;5.88;5.32;;;37.30;99.90;;;;;;5222919;28;20040;-73
2022/09/06 12:38:11;;;;;;;;;;;36.70;99.90;;;;;;5224437;28;20051;-73
2022/09/06 12:40:57;;;;;;;4.65;4.25;;;36.40;99.90;;;;;;5242501;28;20335;-73
2022/09/06 12:43:34;;;;;;;5.35;4.63;;;35.60;99.90;;;;;;5238737;28;20044;-73
2022/09/06 12:46:09;;;;;;;6.82;5.70;;;34.80;99.90;;;;;;5224686;28;20058;-73
2022/09/06 12:48:43;;;;;;;5.75;5.25;;;33.20;99.90;;;;;;5226093;28;20036;-73
2022/09/06 12:51:20;;;;;;;5.22;4.72;;;33.50;99.90;;;;;;5245784;28;20032;-73
2022/09/06 12:53:57;;;;;;;5.40;4.90;;;34.70;99.90;;;;;;5223269;28;20046;-73
2022/09/06 12:56:33;;;;;;;6.45;5.00;;;35.30;99.90;;;;;;5206420;28;20158;-73
2022/09/06 12:59:23;;;;;;;7.32;6.05;;;34.00;99.90;;;;;;5222286;28;20299;-73
2022/09/06 13:02:13;;;;;;;7.43;5.82;;;32.40;99.90;;;;;;5240035;28;20257;-72
2022/09/06 13:04:52;;;;;;;5.88;5.25;;;32.60;99.90;;;;;;5217468;28;20063;-72
2022/09/06 13:07:25;;;;;;;5.75;5.10;;;33.40;99.90;;;;;;5186890;28;20024;-73
2022/09/06 13:09:57;;;;;;;7.65;4.80;;;34.60;99.90;;;;;;5184565;28;20231;-73
2022/09/06 13:12:39;;;;;;;6.75;5.93;;;34.40;99.90;;;;;;5199856;28;20039;-72
2022/09/06 13:15:29;;;;;;;6.55;5.70;;;34.30;99.90;;;;;;5199547;28;20048;-74
2022/09/06 13:18:31;;;;;;;8.50;6.20;;;33.50;99.90;;;;;;5193149;28;20075;-74
2022/09/06 13:21:14;;;;;;;7.03;5.75;;;33.30;99.90;;;;;;5194072;28;20128;-74
2022/09/06 13:23:51;;;;;;;7.18;6.22;;;31.90;99.90;;;;;;5201953;28;20044;-74
2022/09/06 13:26:38;;;;;;;5.97;5.38;;;30.70;99.90;;;;;;5202925;28;20037;-72
2022/09/06 13:29:11;;;;;;;6.15;5.55;;;31.70;99.90;;;;;;5188033;28;20219;-72
2022/09/06 13:31:51;;;;;;;6.40;5.80;;;31.20;99.90;;;;;;5200146;28;20037;-72
2022/09/06 13:34:32;;;;;;;5.07;4.60;;;31.50;99.90;;;;;;5182769;28;20036;-72
2022/09/06 13:37:14;;;;;;;5.43;4.93;;;33.60;99.90;;;;;;5220204;28;20218;-72
2022/09/06 13:39:45;;;;;;;4.93;4.45;;;34.50;99.90;;;;;;5182103;28;20261;-73
2022/09/06 13:42:38;;;;;;;5.93;5.30;;;34.80;99.90;;;;;;5186056;28;20386;-74
2022/09/06 13:45:35;;;;;;;5.30;4.32;;;35.20;99.90;;;;;;5201343;28;20057;-74
2022/09/06 13:48:09;;;;;;;5.90;4.78;;;36.70;99.90;;;;;;5212928;28;20059;-74
2022/09/06 13:50:41;;;;;;;5.53;4.60;;;36.70;99.90;;;;;;5216639;28;20250;-74
2022/09/06 13:53:20;;;;;;;5.30;4.82;;;34.70;99.90;;;;;;5212951;28;20032;-72
2022/09/06 13:55:55;;;;;;;4.75;4.32;;;35.10;99.90;;;;;;5214341;28;20033;-74